Time;durP1;ratioP1;P1;durP2;ratioP2;P2;SDS_P1;SDS_P2;PMS_P1;PMS_P2;Temp;Humidity;BMP_temperature;BMP_pressure;BME280_temperature;BME280_humidity;BME280_pressure;Samples;Min_cycle;Max_cycle;Signal;HPM_P1;HPM_P2
2023/09/26 00:01:13;;;;;;;;;;;;;;;;;;5131677;27;19939;-80
2023/09/26 00:03:39;;;;;;;;;;;;;;;;;;5113264;27;19919;-80
2023/09/26 00:06:05;;;;;;;;;;;;;;;;;;5118745;27;19919;-80
2023/09/26 00:08:33;;;;;;;;;;;;;;;;;;5129598;27;20649;-81
2023/09/26 00:10:59;;;;;;;;;;;;;;;;;;5103824;27;19959;-80
2023/09/26 00:13:25;;;;;;;;;;;;;;;;;;5118226;27;19961;-80
2023/09/26 00:15:51;;;;;;;;;;;;;;;;;;5100459;27;19919;-78
2023/09/26 00:18:17;;;;;;;;;;;;;;;;;;5126966;27;19975;-78
2023/09/26 00:20:44;;;;;;;;;;;;;;;;;;5137985;27;19926;-78
2023/09/26 00:23:11;;;;;;;;;;;;;;;;;;5101899;27;19920;-78
2023/09/26 00:25:37;;;;;;;;;;;;;;;;;;5100078;27;19978;-78
2023/09/26 00:28:03;;;;;;;;;;;;;;;;;;5100776;27;19926;-78
2023/09/26 00:30:29;;;;;;;;;;;;;;;;;;5100775;27;19919;-78
2023/09/26 00:32:55;;;;;;;;;;;;;;;;;;5117530;27;19925;-78
2023/09/26 00:35:21;;;;;;;;;;;;;;;;;;5100782;27;19923;-78
2023/09/26 00:37:47;;;;;;;;;;;;;;;;;;5099870;27;20376;-78
2023/09/26 00:40:14;;;;;;;;;;;;;;;;;;5104459;27;19920;-78
2023/09/26 00:42:40;;;;;;;;;;;;;;;;;;5117228;27;19926;-77
2023/09/26 00:45:06;;;;;;;;;;;;;;;;;;5104048;27;19927;-77
2023/09/26 00:47:34;;;;;;;;;;;;;;;;;;5127627;27;20002;-78
2023/09/26 00:50:01;;;;;;;;;;;;;;;;;;5120729;27;19919;-78
2023/09/26 00:52:26;;;;;;;;;;;;;;;;;;5120688;27;19946;-78
2023/09/26 00:54:53;;;;;;;;;;;;;;;;;;5136347;27;19919;-78
2023/09/26 00:57:19;;;;;;;;;;;;;;;;;;5119132;27;19971;-78
2023/09/26 00:59:44;;;;;;;;;;;;;;;;;;5137776;27;19927;-78
2023/09/26 01:02:10;;;;;;;;;;;;;;;;;;5108387;27;19919;-78
2023/09/26 01:04:36;;;;;;;;;;;;;;;;;;5118134;27;19934;-78
2023/09/26 01:07:02;;;;;;;;;;;;;;;;;;5118540;27;19919;-78
2023/09/26 01:09:28;;;;;;;;;;;;;;;;;;5098058;27;19919;-79
2023/09/26 01:11:54;;;;;;;;;;;;;;;;;;5116700;27;20014;-78
2023/09/26 01:14:20;;;;;;;;;;;;;;;;;;5100374;27;19926;-78
2023/09/26 01:16:46;;;;;;;;;;;;;;;;;;5116907;27;19920;-79
2023/09/26 01:19:12;;;;;;;;;;;;;;;;;;5114309;27;19926;-78
2023/09/26 01:21:38;;;;;;;;;;;;;;;;;;5137810;27;19926;-78
2023/09/26 01:24:04;;;;;;;;;;;;;;;;;;5135762;27;20036;-78
2023/09/26 01:26:30;;;;;;;;;;;;;;;;;;5120601;27;20005;-78
2023/09/26 01:28:56;;;;;;;;;;;;;;;;;;5136719;27;19926;-78
2023/09/26 01:31:22;;;;;;;;;;;;;;;;;;5120548;27;19926;-78
2023/09/26 01:33:48;;;;;;;;;;;;;;;;;;5108314;27;20372;-79
2023/09/26 01:36:14;;;;;;;;;;;;;;;;;;5137522;27;20383;-78
2023/09/26 01:38:40;;;;;;;;;;;;;;;;;;5133951;27;20357;-78
2023/09/26 01:41:06;;;;;;;;;;;;;;;;;;5136833;27;19919;-78
2023/09/26 01:43:32;;;;;;;;;;;;;;;;;;5116902;27;19968;-78
2023/09/26 01:45:58;;;;;;;;;;;;;;;;;;5099297;27;20441;-78
2023/09/26 01:48:23;;;;;;;;;;;;;;;;;;5099189;27;19926;-78
2023/09/26 01:50:49;;;;;;;;;;;;;;;;;;5116012;27;20368;-78
2023/09/26 01:53:15;;;;;;;;;;;;;;;;;;5115371;27;20360;-78
2023/09/26 01:55:41;;;;;;;;;;;;;;;;;;5099034;27;20405;-79
2023/09/26 01:58:07;;;;;;;;;;;;;;;;;;5109233;27;19923;-78
2023/09/26 02:00:34;;;;;;;;;;;;;;;;;;5131994;27;19920;-78
2023/09/26 02:03:00;;;;;;;;;;;;;;;;;;5115838;27;20018;-79
2023/09/26 02:05:26;;;;;;;;;;;;;;;;;;5099124;27;20392;-78
2023/09/26 02:07:52;;;;;;;;;;;;;;;;;;5097707;27;19919;-78
2023/09/26 02:10:18;;;;;;;;;;;;;;;;;;5123085;27;19942;-79
2023/09/26 02:12:44;;;;;;;;;;;;;;;;;;5116006;27;20018;-78
2023/09/26 02:15:11;;;;;;;;;;;;;;;;;;5098996;27;20466;-78
2023/09/26 02:17:37;;;;;;;;;;;;;;;;;;5099039;27;20352;-79
2023/09/26 02:20:08;;;;;;;;;;;;;;;;;;5115490;27;19919;-78
2023/09/26 02:22:33;;;;;;;;;;;;;;;;;;5115276;27;19919;-78
2023/09/26 02:24:59;;;;;;;;;;;;;;;;;;5099833;27;19957;-78
2023/09/26 02:27:25;;;;;;;;;;;;;;;;;;5121653;27;19958;-78
2023/09/26 02:29:51;;;;;;;;;;;;;;;;;;5135823;27;19972;-78
2023/09/26 02:32:17;;;;;;;;;;;;;;;;;;5136011;27;19923;-78
2023/09/26 02:34:43;;;;;;;;;;;;;;;;;;5121775;27;19919;-78
2023/09/26 02:37:09;;;;;;;;;;;;;;;;;;5115154;27;19919;-78
2023/09/26 02:39:35;;;;;;;;;;;;;;;;;;5114285;27;19944;-78
2023/09/26 02:42:01;;;;;;;;;;;;;;;;;;5114798;27;19920;-78
2023/09/26 02:44:27;;;;;;;;;;;;;;;;;;5115367;27;19966;-78
2023/09/26 02:46:53;;;;;;;;;;;;;;;;;;5115184;27;19919;-78
2023/09/26 02:49:19;;;;;;;;;;;;;;;;;;5122936;27;19918;-79
2023/09/26 02:51:45;;;;;;;;;;;;;;;;;;5118807;27;19977;-78
2023/09/26 02:54:11;;;;;;;;;;;;;;;;;;5126119;27;20477;-78
2023/09/26 02:56:36;;;;;;;;;;;;;;;;;;5098640;27;20368;-78
2023/09/26 02:59:02;;;;;;;;;;;;;;;;;;5134893;27;20391;-78
2023/09/26 03:01:28;;;;;;;;;;;;;;;;;;5136060;27;20375;-78
2023/09/26 03:03:55;;;;;;;;;;;;;;;;;;5134982;27;19967;-78
2023/09/26 03:06:21;;;;;;;;;;;;;;;;;;5118952;27;19923;-78
2023/09/26 03:08:47;;;;;;;;;;;;;;;;;;5133983;27;19923;-78
2023/09/26 03:11:13;;;;;;;;;;;;;;;;;;5117896;27;19958;-78
2023/09/26 03:13:39;;;;;;;;;;;;;;;;;;5119134;27;19919;-78
2023/09/26 03:16:08;;;;;;;;;;;;;;;;;;5135122;27;19926;-78
2023/09/26 03:18:34;;;;;;;;;;;;;;;;;;5122864;27;19923;-78
2023/09/26 03:21:00;;;;;;;;;;;;;;;;;;5118311;27;19965;-79
2023/09/26 03:23:26;;;;;;;;;;;;;;;;;;5118257;27;20166;-78
2023/09/26 03:25:52;;;;;;;;;;;;;;;;;;5101743;27;19919;-78
2023/09/26 03:28:18;;;;;;;;;;;;;;;;;;5102016;27;19972;-79
2023/09/26 03:30:46;;;;;;;;;;;;;;;;;;5102481;27;19962;-78
2023/09/26 03:33:12;;;;;;;;;;;;;;;;;;5101589;27;19919;-78
2023/09/26 03:35:38;;;;;;;;;;;;;;;;;;5105271;27;20137;-78
2023/09/26 03:38:04;;;;;;;;;;;;;;;;;;5121505;27;19919;-79
2023/09/26 03:40:30;;;;;;;;;;;;;;;;;;5119743;27;20006;-78
2023/09/26 03:42:56;;;;;;;;;;;;;;;;;;5118816;27;19919;-79
2023/09/26 03:45:22;;;;;;;;;;;;;;;;;;5118923;27;19919;-78
2023/09/26 03:47:48;;;;;;;;;;;;;;;;;;5118826;27;19920;-78
2023/09/26 03:50:14;;;;;;;;;;;;;;;;;;5118390;27;19926;-78
2023/09/26 03:52:40;;;;;;;;;;;;;;;;;;5118151;27;19920;-78
2023/09/26 03:55:06;;;;;;;;;;;;;;;;;;5132066;27;19919;-78
2023/09/26 03:57:32;;;;;;;;;;;;;;;;;;5123519;27;19919;-79
2023/09/26 03:59:58;;;;;;;;;;;;;;;;;;5122029;27;19919;-78
2023/09/26 04:02:24;;;;;;;;;;;;;;;;;;5138797;27;19974;-78
2023/09/26 04:04:50;;;;;;;;;;;;;;;;;;5138963;27;20007;-79
2023/09/26 04:07:16;;;;;;;;;;;;;;;;;;5138419;27;20348;-78
2023/09/26 04:09:42;;;;;;;;;;;;;;;;;;5108947;27;20424;-78
2023/09/26 04:12:08;;;;;;;;;;;;;;;;;;5100926;27;19964;-78
2023/09/26 04:14:34;;;;;;;;;;;;;;;;;;5101589;27;19919;-78
2023/09/26 04:17:00;;;;;;;;;;;;;;;;;;5117206;27;19969;-78
2023/09/26 04:19:26;;;;;;;;;;;;;;;;;;5138521;27;19919;-78
2023/09/26 04:21:52;;;;;;;;;;;;;;;;;;5115386;27;19953;-78
2023/09/26 04:24:18;;;;;;;;;;;;;;;;;;5125002;27;19923;-78
2023/09/26 04:26:44;;;;;;;;;;;;;;;;;;5121790;27;19926;-78
2023/09/26 04:29:10;;;;;;;;;;;;;;;;;;5133319;27;19919;-78
2023/09/26 04:31:36;;;;;;;;;;;;;;;;;;5117520;27;19919;-78
2023/09/26 04:34:02;;;;;;;;;;;;;;;;;;5130681;27;20364;-78
2023/09/26 04:36:28;;;;;;;;;;;;;;;;;;5117715;27;20375;-78
2023/09/26 04:38:54;;;;;;;;;;;;;;;;;;5117763;27;20417;-78
2023/09/26 04:41:20;;;;;;;;;;;;;;;;;;5120751;27;20352;-78
2023/09/26 04:43:46;;;;;;;;;;;;;;;;;;5117082;27;20313;-78
2023/09/26 04:46:12;;;;;;;;;;;;;;;;;;5126813;27;20299;-78
2023/09/26 04:48:39;;;;;;;;;;;;;;;;;;5137596;27;19971;-78
2023/09/26 04:51:05;;;;;;;;;;;;;;;;;;5137649;27;20080;-78
2023/09/26 04:53:31;;;;;;;;;;;;;;;;;;5136438;27;20022;-78
2023/09/26 04:55:57;;;;;;;;;;;;;;;;;;5137724;27;19923;-78
2023/09/26 04:58:23;;;;;;;;;;;;;;;;;;5129835;27;19926;-78
2023/09/26 05:00:49;;;;;;;;;;;;;;;;;;5114250;28;19927;-78
2023/09/26 05:03:15;;;;;;;;;;;;;;;;;;5105366;27;19923;-78
2023/09/26 05:05:41;;;;;;;;;;;;;;;;;;5117416;27;19927;-78
2023/09/26 05:08:07;;;;;;;;;;;;;;;;;;5116602;27;20340;-78
2023/09/26 05:10:33;;;;;;;;;;;;;;;;;;5120275;27;20049;-78
2023/09/26 05:12:59;;;;;;;;;;;;;;;;;;5096936;28;20365;-78
2023/09/26 05:15:25;;;;;;;;;;;;;;;;;;5096290;28;20380;-78
2023/09/26 05:17:54;;;;;;;;;;;;;;;;;;5111503;27;19927;-78
2023/09/26 05:20:20;;;;;;;;;;;;;;;;;;5122235;27;19926;-78
2023/09/26 05:22:46;;;;;;;;;;;;;;;;;;5115042;27;20005;-78
2023/09/26 05:25:12;;;;;;;;;;;;;;;;;;5102487;28;19939;-78
2023/09/26 05:27:38;;;;;;;;;;;;;;;;;;5096681;28;19924;-78
2023/09/26 05:30:04;;;;;;;;;;;;;;;;;;5096836;28;19931;-78
2023/09/26 05:32:30;;;;;;;;;;;;;;;;;;5095876;28;20579;-78
2023/09/26 05:34:56;;;;;;;;;;;;;;;;;;5096399;28;19919;-78
2023/09/26 05:37:21;;;;;;;;;;;;;;;;;;5095823;28;19931;-79
2023/09/26 05:39:47;;;;;;;;;;;;;;;;;;5095144;28;19924;-78
2023/09/26 05:42:13;;;;;;;;;;;;;;;;;;5112031;28;19919;-78
2023/09/26 05:44:39;;;;;;;;;;;;;;;;;;5120640;27;19920;-78
2023/09/26 05:47:05;;;;;;;;;;;;;;;;;;5099140;28;19943;-78
2023/09/26 05:49:31;;;;;;;;;;;;;;;;;;5095160;28;20002;-78
2023/09/26 05:51:57;;;;;;;;;;;;;;;;;;5112902;28;19969;-78
2023/09/26 05:54:23;;;;;;;;;;;;;;;;;;5110850;28;19920;-78
2023/09/26 05:56:49;;;;;;;;;;;;;;;;;;5114851;27;19920;-78
2023/09/26 05:59:15;;;;;;;;;;;;;;;;;;5132498;27;19977;-79
2023/09/26 06:01:41;;;;;;;;;;;;;;;;;;5130003;27;19934;-78
2023/09/26 06:04:07;;;;;;;;;;;;;;;;;;5116059;27;19923;-78
2023/09/26 06:06:33;;;;;;;;;;;;;;;;;;5131848;27;19919;-78
2023/09/26 06:08:59;;;;;;;;;;;;;;;;;;5131448;27;19919;-78
2023/09/26 06:11:25;;;;;;;;;;;;;;;;;;5132321;27;20014;-78
2023/09/26 06:13:54;;;;;;;;;;;;;;;;;;5133456;27;19919;-78
2023/09/26 06:16:20;;;;;;;;;;;;;;;;;;5115391;27;19968;-78
2023/09/26 06:18:47;;;;;;;;;;;;;;;;;;5132888;27;20276;-79
2023/09/26 06:21:14;;;;;;;;;;;;;;;;;;5121990;27;19919;-78
2023/09/26 06:23:40;;;;;;;;;;;;;;;;;;5111155;27;19920;-78
2023/09/26 06:26:06;;;;;;;;;;;;;;;;;;5124394;27;20117;-75
2023/09/26 06:28:32;;;;;;;;;;;;;;;;;;5117657;27;20430;-75
2023/09/26 06:30:58;;;;;;;;;;;;;;;;;;5112631;28;20367;-77
2023/09/26 06:33:24;;;;;;;;;;;;;;;;;;5111726;28;19919;-76
2023/09/26 06:35:50;;;;;;;;;;;;;;;;;;5112278;28;19919;-77
2023/09/26 06:38:17;;;;;;;;;;;;;;;;;;5093948;28;19920;-80
2023/09/26 06:41:09;;;;;;;;;;;;;;;;;;5094617;28;19919;-86
2023/09/26 06:46:38;;;;;;;;;;;;;;;;;;5113650;27;19962;-78
2023/09/26 06:49:25;;;;;;;;;;;;;;;;;;5086319;28;20274;-78
2023/09/26 06:57:43;;;;;;;;;;;;;;;;;;5138018;27;19919;-78
2023/09/26 07:00:27;;;;;;;;;;;;;;;;;;5049068;28;19931;-78
2023/09/26 07:03:09;;;;;;;;;;;;;;;;;;5114173;27;19919;-79
2023/09/26 07:05:37;;;;;;;;;;;;;;;;;;5097564;27;19926;-78
2023/09/26 07:11:45;;;;;;;;;;;;;;;;;;5152774;27;19914;-78
2023/09/26 07:20:26;;;;;;;;;;;;;;;;;;5068973;28;19920;-78
2023/09/26 07:22:51;;;;;;;;;;;;;;;;;;5035735;28;20022;-78
2023/09/26 07:25:17;;;;;;;;;;;;;;;;;;5052139;28;19974;-78
2023/09/26 07:27:43;;;;;;;;;;;;;;;;;;5055940;28;19920;-78
2023/09/26 07:30:09;;;;;;;;;;;;;;;;;;5056340;28;19955;-79
2023/09/26 07:32:35;;;;;;;;;;;;;;;;;;5070216;28;19935;-78
2023/09/26 07:35:02;;;;;;;;;;;;;;;;;;5063201;28;19927;-78
2023/09/26 07:37:28;;;;;;;;;;;;;;;;;;5074575;28;19974;-78
2023/09/26 07:39:54;;;;;;;;;;;;;;;;;;5063441;28;20364;-79
2023/09/26 07:42:20;;;;;;;;;;;;;;;;;;5071306;28;19982;-78
2023/09/26 07:44:45;;;;;;;;;;;;;;;;;;5064328;28;20303;-77
2023/09/26 07:47:11;;;;;;;;;;;;;;;;;;5059277;28;19919;-77
2023/09/26 07:49:37;;;;;;;;;;;;;;;;;;5063814;28;19924;-78
2023/09/26 07:52:03;;;;;;;;;;;;;;;;;;5053742;28;19942;-77
2023/09/26 07:54:29;;;;;;;;;;;;;;;;;;5073862;28;20396;-77
2023/09/26 07:56:55;;;;;;;;;;;;;;;;;;5073478;28;20448;-82
2023/09/26 07:59:21;;;;;;;;;;;;;;;;;;5055649;28;20289;-78
2023/09/26 08:01:48;;;;;;;;;;;;;;;;;;5077908;28;20011;-76
2023/09/26 08:04:24;;;;;;;;;;;;;;;;;;5064875;28;19920;-77
2023/09/26 08:06:59;;;;;;;;;;;;;;;;;;5059208;28;20003;-75
2023/09/26 08:09:25;;;;;;;;;;;;;;;;;;5050555;28;20019;-77
2023/09/26 08:11:51;;;;;;;;;;;;;;;;;;5065746;28;20480;-74
2023/09/26 08:14:19;;;;;;;;;;;;;;;;;;5077110;28;20386;-76
2023/09/26 08:16:54;;;;;;;;;;;;;;;;;;5062601;28;19974;-76
2023/09/26 08:19:26;;;;;;;;;;;;;;;;;;5082985;27;19946;-77
2023/09/26 08:21:52;;;;;;;;;;;;;;;;;;5123639;27;20360;-76
2023/09/26 08:24:29;;;;;;;;;;;;;;;;;;5146708;27;19983;-77
2023/09/26 08:26:55;;;;;;;;;;;;;;;;;;5117722;27;19962;-76
2023/09/26 08:29:21;;;;;;;;;;;;;;;;;;5113715;27;20434;-79
2023/09/26 08:31:51;;;;;;;;;;;;;;;;;;5137205;27;20174;-77
2023/09/26 08:34:17;;;;;;;;;;;;;;;;;;5139046;27;19929;-75
2023/09/26 08:36:43;;;;;;;;;;;;;;;;;;5116987;27;19920;-75
2023/09/26 08:39:09;;;;;;;;;;;;;;;;;;5112624;27;19965;-77
2023/09/26 08:41:35;;;;;;;;;;;;;;;;;;5132318;27;19920;-76
2023/09/26 08:44:01;;;;;;;;;;;;;;;;;;5113553;27;20013;-75
2023/09/26 08:46:27;;;;;;;;;;;;;;;;;;5117583;27;20081;-76
2023/09/26 08:48:53;;;;;;;;;;;;;;;;;;5127523;27;20113;-77
2023/09/26 08:51:19;;;;;;;;;;;;;;;;;;5138270;27;19965;-76
2023/09/26 08:53:45;;;;;;;;;;;;;;;;;;5119030;27;19919;-76
2023/09/26 08:56:11;;;;;;;;;;;;;;;;;;5121054;27;19927;-74
2023/09/26 08:58:37;;;;;;;;;;;;;;;;;;5132862;27;19927;-75
2023/09/26 09:01:03;;;;;;;;;;;;;;;;;;5120090;27;19919;-76
2023/09/26 09:03:29;;;;;;;;;;;;;;;;;;5137751;27;19919;-77
2023/09/26 09:05:55;;;;;;;;;;;;;;;;;;5116854;27;19923;-74
2023/09/26 09:08:21;;;;;;;;;;;;;;;;;;5119716;27;19923;-70
2023/09/26 09:10:47;;;;;;;;;;;;;;;;;;5126211;27;19984;-70
2023/09/26 09:13:13;;;;;;;;;;;;;;;;;;5134957;27;19927;-70
2023/09/26 09:15:39;;;;;;;;;;;;;;;;;;5134809;27;19919;-71
2023/09/26 09:18:05;;;;;;;;;;;;;;;;;;5136494;27;19919;-68
2023/09/26 09:20:31;;;;;;;;;;;;;;;;;;5155994;27;19941;-68
2023/09/26 09:22:57;;;;;;;;;;;;;;;;;;5145582;27;19996;-68
2023/09/26 09:25:25;;;;;;;;;;;;;;;;;;5137396;27;20353;-68
2023/09/26 09:27:51;;;;;;;;;;;;;;;;;;5134014;27;19920;-68
2023/09/26 09:30:21;;;;;;;;;;;;;;;;;;5116784;27;19931;-68
2023/09/26 09:32:47;;;;;;;;;;;;;;;;;;5134484;27;19923;-68
2023/09/26 09:35:13;;;;;;;;;;;;;;;;;;5134950;27;19919;-68
2023/09/26 09:37:39;;;;;;;;;;;;;;;;;;5134017;27;19920;-69
2023/09/26 09:40:05;;;;;;;;;;;;;;;;;;5133805;27;20296;-68
2023/09/26 09:42:31;;;;;;;;;;;;;;;;;;5134738;27;20546;-68
2023/09/26 09:44:58;;;;;;;;;;;;;;;;;;5139683;27;20765;-68
2023/09/26 09:47:24;;;;;;;;;;;;;;;;;;5148911;27;19923;-68
2023/09/26 09:49:50;;;;;;;;;;;;;;;;;;5133949;27;19979;-68
2023/09/26 09:52:16;;;;;;;;;;;;;;;;;;5134527;27;19919;-82
2023/09/26 09:54:42;;;;;;;;;;;;;;;;;;5117137;27;20003;-78
2023/09/26 09:57:11;;;;;;;;;;;;;;;;;;5116385;27;20014;-79
2023/09/26 09:59:37;;;;;;;;;;;;;;;;;;5116024;27;19930;-79
2023/09/26 10:02:03;;;;;;;;;;;;;;;;;;5116011;27;19919;-79
2023/09/26 10:04:29;;;;;;;;;;;;;;;;;;5115795;27;19975;-79
2023/09/26 10:06:55;;;;;;;;;;;;;;;;;;5100464;27;19922;-80
2023/09/26 10:09:21;;;;;;;;;;;;;;;;;;5111419;27;19923;-76
2023/09/26 10:11:47;;;;;;;;;;;;;;;;;;5120350;27;19930;-76
2023/09/26 10:14:13;;;;;;;;;;;;;;;;;;5122153;27;19920;-77
2023/09/26 10:16:39;;;;;;;;;;;;;;;;;;5121200;27;19997;-78
2023/09/26 10:19:05;;;;;;;;;;;;;;;;;;5111655;27;19998;-77
2023/09/26 10:21:31;;;;;;;;;;;;;;;;;;5132877;27;19919;-77
2023/09/26 10:23:57;;;;;;;;;;;;;;;;;;5133476;27;19925;-77
2023/09/26 10:26:23;;;;;;;;;;;;;;;;;;5135031;27;20036;-77
2023/09/26 10:28:49;;;;;;;;;;;;;;;;;;5121643;27;20010;-80
2023/09/26 10:31:15;;;;;;;;;;;;;;;;;;5121594;27;19924;-77
2023/09/26 10:33:40;;;;;;;;;;;;;;;;;;5115406;27;19920;-81
2023/09/26 10:36:07;;;;;;;;;;;;;;;;;;5116312;27;19919;-79
2023/09/26 10:38:33;;;;;;;;;;;;;;;;;;5128271;27;19919;-78
2023/09/26 10:40:59;;;;;;;;;;;;;;;;;;5119344;27;19988;-79
2023/09/26 10:43:26;;;;;;;;;;;;;;;;;;5129236;27;19919;-73
2023/09/26 10:45:53;;;;;;;;;;;;;;;;;;5152759;27;19918;-73
2023/09/26 10:48:19;;;;;;;;;;;;;;;;;;5152937;27;19923;-75
2023/09/26 10:50:45;;;;;;;;;;;;;;;;;;5134975;27;20017;-75
2023/09/26 10:53:11;;;;;;;;;;;;;;;;;;5132546;27;19919;-76
2023/09/26 10:55:37;;;;;;;;;;;;;;;;;;5150404;27;20013;-75
2023/09/26 10:58:03;;;;;;;;;;;;;;;;;;5151300;27;19922;-76
2023/09/26 11:00:29;;;;;;;;;;;;;;;;;;5153111;27;19925;-75
2023/09/26 11:02:55;;;;;;;;;;;;;;;;;;5134605;27;19919;-67
2023/09/26 11:05:21;;;;;;;;;;;;;;;;;;5153142;27;19923;-75
2023/09/26 11:07:47;;;;;;;;;;;;;;;;;;5131407;27;20363;-76
2023/09/26 11:10:13;;;;;;;;;;;;;;;;;;5127119;27;19926;-75
2023/09/26 11:12:39;;;;;;;;;;;;;;;;;;5120954;27;19919;-75
2023/09/26 11:15:05;;;;;;;;;;;;;;;;;;5116758;27;19923;-75
2023/09/26 11:17:31;;;;;;;;;;;;;;;;;;5140720;27;20034;-75
2023/09/26 11:20:00;;;;;;;;;;;;;;;;;;5149415;27;19929;-76
2023/09/26 11:22:26;;;;;;;;;;;;;;;;;;5128393;27;20648;-76
2023/09/26 11:24:52;;;;;;;;;;;;;;;;;;5106997;27;20002;-76
2023/09/26 11:27:18;;;;;;;;;;;;;;;;;;5125809;27;19930;-75
2023/09/26 11:29:44;;;;;;;;;;;;;;;;;;5133815;27;19922;-75
2023/09/26 11:32:10;;;;;;;;;;;;;;;;;;5133913;27;19919;-75
2023/09/26 11:34:36;;;;;;;;;;;;;;;;;;5130519;27;19919;-75
2023/09/26 11:37:02;;;;;;;;;;;;;;;;;;5099264;27;20002;-77
2023/09/26 11:39:28;;;;;;;;;;;;;;;;;;5119623;27;19923;-75
2023/09/26 11:41:53;;;;;;;;;;;;;;;;;;5135891;27;19918;-76
2023/09/26 11:44:19;;;;;;;;;;;;;;;;;;5118561;27;19925;-74
2023/09/26 11:46:45;;;;;;;;;;;;;;;;;;5120471;27;19945;-75
2023/09/26 11:49:12;;;;;;;;;;;;;;;;;;5133762;27;19919;-71
2023/09/26 11:52:13;;;;;;;8.95;3.70;;;;;;;;;;5080179;28;20378;-75
2023/09/26 11:54:39;;;;;;;6.80;3.72;;;;;;;;;;5083607;28;20054;-74
2023/09/26 11:57:06;;;;;;;5.65;3.42;;;;;;;;;;5068344;28;20074;-79
2023/09/26 11:59:32;;;;;;;7.70;4.38;;;;;;;;;;5077003;28;20093;-75
2023/09/26 12:02:00;;;;;;;6.85;4.07;;;;;;;;;;5073110;28;20047;-76
2023/09/26 12:04:27;;;;;;;8.57;4.15;;;;;;;;;;5086650;28;20056;-75
2023/09/26 12:06:53;;;;;;;8.25;4.18;;;;;;;;;;5087772;28;20110;-76
2023/09/26 12:09:20;;;;;;;7.03;4.30;;;;;;;;;;5085814;28;20055;-75
2023/09/26 12:11:50;;;;;;;7.43;4.40;;;;;;;;;;5086985;28;20040;-75
2023/09/26 12:14:17;;;;;;;6.95;3.72;;;;;;;;;;5087362;28;20048;-75
2023/09/26 12:16:44;;;;;;;7.03;3.90;;;;;;;;;;5082815;28;20057;-76
2023/09/26 12:19:13;;;;;;;6.60;4.28;;;;;;;;;;5079026;28;20417;-76
2023/09/26 12:21:39;;;;;;;8.55;4.47;;;;;;;;;;5067859;28;20095;-76
2023/09/26 12:24:05;;;;;;;10.32;4.47;;;;;;;;;;5048546;28;20055;-76
2023/09/26 12:26:31;;;;;;;10.63;4.50;;;;;;;;;;5087018;28;20133;-76
2023/09/26 12:28:57;;;;;;;5.15;3.60;;;;;;;;;;5087339;28;20041;-77
2023/09/26 12:31:24;;;;;;;9.07;4.38;;;;;;;;;;5086712;28;20503;-76
2023/09/26 12:33:50;;;;;;;7.65;3.78;;;;;;;;;;5087019;28;20440;-76
2023/09/26 12:36:16;;;;;;;9.20;4.40;;;;;;;;;;5060335;28;20052;-76
2023/09/26 12:38:42;;;;;;;8.32;3.65;;;;;;;;;;5085858;28;20371;-77
2023/09/26 12:41:08;;;;;;;7.45;4.03;;;;;;;;;;5070470;28;20067;-76
2023/09/26 12:43:34;;;;;;;8.45;4.65;;;;;;;;;;5069914;28;20131;-76
2023/09/26 12:46:01;;;;;;;8.18;3.85;;;;;;;;;;5061884;28;20044;-76
2023/09/26 12:48:27;;;;;;;10.90;3.33;;;;;;;;;;5081672;28;20265;-76
2023/09/26 12:50:53;;;;;;;6.00;3.92;;;;;;;;;;5061052;28;20082;-76
2023/09/26 12:53:19;;;;;;;7.30;3.70;;;;;;;;;;5081093;28;20135;-76
2023/09/26 12:55:45;;;;;;;7.40;3.80;;;;;;;;;;5059214;28;20048;-76
2023/09/26 12:58:12;;;;;;;6.28;3.72;;;;;;;;;;5059058;28;20049;-76
2023/09/26 13:00:38;;;;;;;7.53;4.25;;;;;;;;;;5070333;28;20050;-76
2023/09/26 13:03:04;;;;;;;8.52;4.32;;;;;;;;;;5058923;28;21373;-78
2023/09/26 13:05:31;;;;;;;6.50;3.75;;;;;;;;;;5066394;28;20041;-76
2023/09/26 13:07:57;;;;;;;11.25;4.85;;;;;;;;;;5049040;28;20038;-76
2023/09/26 13:10:23;;;;;;;6.68;4.10;;;;;;;;;;5041820;28;20041;-75
2023/09/26 13:12:49;;;;;;;8.10;4.43;;;;;;;;;;5069501;28;20044;-75
2023/09/26 13:15:15;;;;;;;10.00;4.30;;;;;;;;;;5055611;28;20079;-76
2023/09/26 13:17:41;;;;;;;6.72;3.35;;;;;;;;;;5073177;28;20045;-76
2023/09/26 13:20:13;;;;;;;9.07;3.92;;;;;;;;;;5073133;28;20047;-77
2023/09/26 13:22:39;;;;;;;6.20;3.67;;;;;;;;;;5072464;28;20076;-76
2023/09/26 13:25:07;;;;;;;7.03;3.63;;;;;;;;;;5071044;28;20549;-78
2023/09/26 13:27:33;;;;;;;7.63;3.80;;;;;;;;;;5068477;28;20077;-76
2023/09/26 13:29:59;;;;;;;8.32;4.13;;;;;;;;;;5039337;28;20052;-76
2023/09/26 13:32:26;;;;;;;7.43;3.95;;;;;;;;;;5052467;28;20060;-77
2023/09/26 13:34:52;;;;;;;6.75;3.78;;;;;;;;;;5065781;28;20080;-76
2023/09/26 13:37:18;;;;;;;7.72;4.15;;;;;;;;;;5054583;28;20060;-75
2023/09/26 13:39:44;;;;;;;6.88;3.72;;;;;;;;;;5039954;28;20053;-75
2023/09/26 13:42:11;;;;;;;6.05;3.60;;;;;;;;;;5051378;28;20048;-79
2023/09/26 13:44:38;;;;;;;7.47;3.65;;;;;;;;;;5064606;28;20097;-76
2023/09/26 13:47:04;;;;;;;9.13;3.95;;;;;;;;;;5020854;28;20049;-77
2023/09/26 13:49:30;;;;;;;6.30;3.45;;;;;;;;;;5046800;28;20100;-75
2023/09/26 13:51:57;;;;;;;7.05;4.25;;;;;;;;;;5059797;28;20053;-77
2023/09/26 13:54:25;;;;;;;8.27;3.67;;;;;;;;;;5044942;28;20103;-75
2023/09/26 13:56:52;;;;;;;7.38;3.88;;;;;;;;;;5064924;28;20118;-76
2023/09/26 13:59:18;;;;;;;5.13;3.33;;;;;;;;;;5033294;28;20064;-76
2023/09/26 14:01:44;;;;;;;5.78;3.55;;;;;;;;;;5067707;28;20408;-76
2023/09/26 14:04:11;;;;;;;7.35;3.95;;;;;;;;;;5071122;28;20437;-77
2023/09/26 14:06:37;;;;;;;6.63;3.78;;;;;;;;;;5064019;28;20478;-76
2023/09/26 14:09:04;;;;;;;9.98;4.05;;;;;;;;;;5038060;28;20386;-76
2023/09/26 14:11:30;;;;;;;6.90;3.63;;;;;;;;;;5070548;28;20076;-76
2023/09/26 14:13:56;;;;;;;5.93;3.40;;;;;;;;;;5070065;28;20055;-76
2023/09/26 14:16:22;;;;;;;5.43;3.50;;;;;;;;;;5071207;28;20375;-76
2023/09/26 14:18:48;;;;;;;7.28;4.00;;;;;;;;;;5038160;28;20091;-76
2023/09/26 14:21:15;;;;;;;6.25;3.58;;;;;;;;;;5037210;28;20485;-78
2023/09/26 14:23:44;;;;;;;6.75;3.38;;;;;;;;;;5070679;28;20052;-76
2023/09/26 14:26:13;;;;;;;7.40;4.28;;;;;;;;;;5054910;28;20225;-78
2023/09/26 14:28:40;;;;;;;8.60;4.57;;;;;;;;;;5038820;28;20099;-75
2023/09/26 14:31:08;;;;;;;6.38;4.05;;;;;;;;;;5066206;28;20119;-75
2023/09/26 14:33:34;;;;;;;10.45;4.18;;;;;;;;;;5070633;28;20595;-77
2023/09/26 14:36:01;;;;;;;7.20;3.72;;;;;;;;;;5054367;28;20150;-76
2023/09/26 14:38:27;;;;;;;7.40;3.65;;;;;;;;;;5069866;28;20041;-76
2023/09/26 14:40:54;;;;;;;7.85;3.78;;;;;;;;;;5064791;28;20103;-76
2023/09/26 14:43:20;;;;;;;6.75;4.00;;;;;;;;;;5049409;28;20048;-75
2023/09/26 14:45:46;;;;;;;5.90;2.90;;;;;;;;;;5030375;28;20060;-76
2023/09/26 14:48:12;;;;;;;8.00;3.85;;;;;;;;;;5016926;28;20049;-76
2023/09/26 14:50:39;;;;;;;4.88;2.67;;;;;;;;;;5050007;28;20429;-76
2023/09/26 14:53:05;;;;;;;6.18;3.08;;;;;;;;;;5060309;28;20049;-76
2023/09/26 14:55:31;;;;;;;5.13;2.80;;;;;;;;;;5065344;28;20060;-76
2023/09/26 14:57:57;;;;;;;4.10;2.45;;;;;;;;;;5044708;28;20045;-76
2023/09/26 15:00:23;;;;;;;5.40;2.80;;;;;;;;;;5027909;28;20095;-82
2023/09/26 15:02:49;;;;;;;6.82;3.42;;;;;;;;;;5070420;28;20048;-75
2023/09/26 15:05:15;;;;;;;7.00;3.38;;;;;;;;;;5070198;28;20540;-75
2023/09/26 15:07:41;;;;;;;7.88;3.20;;;;;;;;;;5065785;28;20040;-75
2023/09/26 15:10:09;;;;;;;3.85;2.38;;;;;;;;;;5046429;28;20578;-78
2023/09/26 15:12:36;;;;;;;3.13;2.10;;;;;;;;;;5050664;28;20079;-70
2023/09/26 15:15:02;;;;;;;4.75;2.17;;;;;;;;;;5041498;28;20057;-71
2023/09/26 15:17:28;;;;;;;5.03;2.60;;;;;;;;;;5046847;28;20048;-71
2023/09/26 15:19:54;;;;;;;4.13;2.10;;;;;;;;;;5049845;28;20047;-71
2023/09/26 15:22:20;;;;;;;4.68;2.20;;;;;;;;;;5057535;28;20070;-73
2023/09/26 15:24:46;;;;;;;4.28;2.30;;;;;;;;;;5068495;28;20044;-71
2023/09/26 15:27:12;;;;;;;6.63;2.70;;;;;;;;;;5069408;28;20119;-72
2023/09/26 15:29:38;;;;;;;3.65;2.20;;;;;;;;;;5048657;28;20114;-71
2023/09/26 15:32:04;;;;;;;3.85;2.00;;;;;;;;;;5050394;28;20119;-71
2023/09/26 15:34:30;;;;;;;4.65;2.47;;;;;;;;;;5062828;28;20048;-71
2023/09/26 15:36:56;;;;;;;4.97;2.22;;;;;;;;;;5057555;28;20087;-69
2023/09/26 15:39:24;;;;;;;6.38;3.00;;;;;;;;;;5068262;28;20371;-73
2023/09/26 15:41:50;;;;;;;6.53;3.03;;;;;;;;;;5070466;28;20037;-70
2023/09/26 15:44:17;;;;;;;8.32;3.50;;;;;;;;;;5067691;28;20048;-70
2023/09/26 15:46:43;;;;;;;5.90;3.42;;;;;;;;;;5054404;28;20142;-70
2023/09/26 15:49:09;;;;;;;5.10;2.85;;;;;;;;;;5056392;28;20052;-78
2023/09/26 15:51:35;;;;;;;4.38;2.50;;;;;;;;;;5053613;28;20067;-77
2023/09/26 15:54:01;;;;;;;8.32;3.10;;;;;;;;;;5059814;28;20494;-77
2023/09/26 15:56:27;;;;;;;8.05;3.40;;;;;;;;;;5057391;28;20060;-78
2023/09/26 15:58:53;;;;;;;7.45;2.97;;;;;;;;;;5040470;28;20124;-79
2023/09/26 16:01:19;;;;;;;5.85;2.90;;;;;;;;;;5058336;28;20041;-78
2023/09/26 16:03:45;;;;;;;6.10;2.80;;;;;;;;;;5061460;28;20059;-76
2023/09/26 16:06:12;;;;;;;8.43;3.10;;;;;;;;;;5050785;28;20055;-75
2023/09/26 16:08:38;;;;;;;6.47;3.00;;;;;;;;;;5050072;28;20053;-74
2023/09/26 16:11:04;;;;;;;9.25;3.30;;;;;;;;;;5052528;28;20041;-75
2023/09/26 16:13:32;;;;;;;4.32;2.40;;;;;;;;;;5054632;28;20041;-76
2023/09/26 16:15:58;;;;;;;2.85;1.83;;;;;;;;;;5053203;28;20041;-73
2023/09/26 16:18:24;;;;;;;2.83;1.98;;;;;;;;;;5051055;28;20494;-72
2023/09/26 16:20:50;;;;;;;4.15;2.00;;;;;;;;;;5059267;28;20296;-75